createdAt,value
2022-08-08T00:00:50.593Z,39.90
2022-08-08T00:04:07.135Z,40.34
2022-08-08T00:07:28.543Z,40.22
2022-08-08T00:10:28.386Z,39.85
2022-08-08T00:14:16.781Z,39.84
2022-08-08T00:16:41.465Z,39.96
2022-08-08T00:19:46.696Z,39.87
2022-08-08T00:22:43.102Z,39.87
2022-08-08T00:25:39.133Z,40.17
2022-08-08T00:28:47.281Z,41.76
2022-08-08T00:32:29.127Z,42.26
2022-08-08T00:35:23.529Z,41.94
2022-08-08T00:38:32.089Z,41.47
2022-08-08T00:41:54.502Z,41.17
2022-08-08T00:45:21.655Z,41.61
2022-08-08T00:48:34.100Z,41.04
2022-08-08T00:51:57.254Z,41.42
2022-08-08T00:55:05.085Z,41.43
2022-08-08T00:58:04.546Z,41.21
2022-08-08T01:01:02.652Z,41.59
2022-08-08T01:04:02.837Z,41.42
2022-08-08T01:07:06.096Z,41.30
2022-08-08T01:10:17.614Z,41.46
2022-08-08T01:13:43.578Z,41.48
2022-08-08T01:16:57.837Z,41.13
2022-08-08T01:20:21.878Z,42.02
2022-08-08T01:24:02.353Z,41.66
2022-08-08T01:26:48.964Z,41.73
2022-08-08T01:30:03.366Z,41.69
2022-08-08T01:33:27.678Z,41.52
2022-08-08T01:36:48.604Z,41.33
2022-08-08T01:40:14.716Z,41.69
2022-08-08T01:43:06.337Z,41.53
2022-08-08T01:46:32.738Z,41.54
2022-08-08T01:49:46.401Z,41.53
2022-08-08T01:53:05.248Z,41.32
2022-08-08T01:56:30.613Z,41.79
2022-08-08T01:59:37.858Z,41.74
2022-08-08T02:03:04.446Z,41.67
2022-08-08T02:06:02.933Z,41.75
2022-08-08T02:09:17.486Z,41.59
2022-08-08T02:12:43.129Z,41.51
2022-08-08T02:15:34.552Z,41.93
2022-08-08T02:18:43.423Z,41.90
2022-08-08T02:22:09.487Z,42.03
2022-08-08T02:25:47.418Z,41.88
2022-08-08T02:28:48.381Z,41.90
2022-08-08T02:32:05.280Z,41.99
2022-08-08T02:35:08.942Z,42.10
2022-08-08T02:38:52.506Z,42.55
2022-08-08T02:41:58.428Z,42.21
2022-08-08T02:45:53.977Z,42.03
2022-08-08T02:49:02.133Z,42.31
2022-08-08T02:52:32.711Z,42.41
2022-08-08T02:55:37.211Z,44.68
2022-08-08T02:58:42.380Z,43.34
2022-08-08T03:01:47.217Z,43.29
2022-08-08T03:05:04.105Z,43.70
2022-08-08T03:08:34.215Z,45.78
2022-08-08T03:12:02.820Z,46.26
2022-08-08T03:16:01.433Z,45.16
2022-08-08T03:18:48.993Z,45.88
2022-08-08T03:21:54.649Z,44.68
2022-08-08T03:24:46.917Z,45.02
2022-08-08T03:27:41.860Z,46.75
2022-08-08T03:30:30.050Z,45.24
2022-08-08T03:33:54.826Z,44.77
2022-08-08T03:36:27.909Z,44.57
2022-08-08T03:39:17.552Z,44.37
2022-08-08T03:42:26.541Z,44.26
2022-08-08T03:46:06.494Z,44.03
2022-08-08T03:49:09.493Z,43.72
2022-08-08T03:51:51.024Z,43.88
2022-08-08T03:55:02.279Z,43.99
2022-08-08T03:58:34.857Z,43.54
2022-08-08T04:01:23.101Z,43.84
2022-08-08T04:04:09.137Z,43.69
2022-08-08T04:07:01.369Z,43.63
2022-08-08T04:10:00.465Z,43.70
2022-08-08T04:12:54.836Z,43.66
2022-08-08T04:15:54.372Z,43.81
2022-08-08T04:18:48.957Z,43.92
2022-08-08T04:21:41.223Z,43.82
2022-08-08T04:24:32.369Z,43.68
2022-08-08T04:28:02.723Z,43.87
2022-08-08T04:30:36.671Z,44.27
2022-08-08T04:33:41.776Z,43.84
2022-08-08T04:36:29.939Z,44.19
2022-08-08T04:40:04.391Z,44.04
2022-08-08T04:42:26.051Z,43.94
2022-08-08T04:45:12.960Z,44.07
2022-08-08T04:48:00.896Z,43.86
2022-08-08T04:50:51.162Z,43.99
2022-08-08T04:54:37.441Z,44.23
2022-08-08T04:56:48.923Z,44.10
2022-08-08T04:59:42.412Z,44.18
2022-08-08T05:02:30.905Z,44.22
2022-08-08T05:05:44.246Z,44.13
2022-08-08T05:08:26.978Z,43.95
2022-08-08T05:11:24.253Z,43.59
2022-08-08T05:14:16.278Z,43.96
2022-08-08T05:17:10.789Z,44.20
2022-08-08T05:20:09.271Z,44.02
2022-08-08T05:23:00.943Z,44.10
2022-08-08T05:25:51.591Z,44.28
2022-08-08T05:28:56.288Z,44.09
2022-08-08T05:32:04.905Z,44.25
2022-08-08T05:34:53.388Z,44.22
2022-08-08T05:37:58.862Z,44.38
2022-08-08T05:41:04.540Z,44.42
2022-08-08T05:44:03.907Z,44.26
2022-08-08T05:46:53.821Z,44.42
2022-08-08T05:49:57.308Z,44.42
2022-08-08T05:52:47.943Z,44.31
2022-08-08T05:56:07.889Z,44.59
2022-08-08T05:58:53.911Z,44.66
2022-08-08T06:01:57.799Z,44.56
2022-08-08T06:04:54.883Z,45.57
2022-08-08T06:07:47.249Z,45.93
2022-08-08T06:10:38.458Z,46.30
2022-08-08T06:13:30.006Z,45.98
2022-08-08T06:16:27.286Z,46.36
2022-08-08T06:19:33.228Z,45.94
2022-08-08T06:22:36.502Z,45.83
2022-08-08T12:28:55.064Z,26.39
2022-08-08T12:31:54.247Z,28.71
2022-08-08T12:34:43.204Z,28.40
2022-08-08T12:37:41.444Z,28.46
2022-08-08T12:40:59.144Z,27.88
2022-08-08T12:44:00.640Z,27.31
2022-08-08T12:47:00.934Z,27.25
2022-08-08T12:49:55.277Z,26.76
2022-08-08T12:52:42.570Z,27.04
2022-08-08T12:55:56.464Z,27.14
2022-08-08T12:58:51.298Z,26.59
2022-08-08T13:01:38.568Z,26.21
2022-08-08T13:04:32.792Z,25.99
2022-08-08T13:07:19.286Z,26.12
2022-08-08T13:10:32.653Z,25.43
2022-08-08T13:13:35.352Z,25.49
2022-08-08T13:16:25.906Z,25.42
2022-08-08T13:19:17.725Z,25.16
2022-08-08T13:22:04.619Z,25.01
2022-08-08T13:24:53.075Z,25.17
2022-08-08T13:27:39.210Z,25.03
2022-08-08T13:30:28.231Z,24.75
2022-08-08T13:33:18.462Z,24.73
2022-08-08T13:36:06.628Z,24.34
2022-08-08T13:38:52.659Z,24.12
2022-08-08T13:41:43.742Z,24.36
2022-08-08T13:44:36.058Z,24.37
2022-08-08T13:47:25.740Z,24.09
2022-08-08T13:50:38.736Z,24.11
2022-08-08T13:53:31.653Z,23.92
2022-08-08T13:56:41.534Z,23.61
2022-08-08T13:59:39.344Z,23.79
2022-08-08T14:02:32.874Z,24.12
2022-08-08T14:05:28.143Z,23.59
2022-08-08T14:08:16.836Z,23.24
2022-08-08T14:11:17.260Z,24.21
2022-08-08T14:14:08.504Z,23.12
2022-08-08T14:16:55.524Z,22.94
2022-08-08T14:19:57.608Z,22.75
2022-08-08T14:22:50.703Z,22.80
2022-08-08T14:25:46.529Z,22.39
2022-08-08T14:28:50.953Z,21.48
2022-08-08T14:32:08.789Z,22.34
2022-08-08T14:34:57.014Z,22.18
2022-08-08T14:38:00.999Z,22.51
2022-08-08T14:40:49.859Z,22.78
2022-08-08T14:44:09.938Z,22.19
2022-08-08T14:47:01.002Z,22.50
2022-08-08T14:50:06.433Z,22.25
2022-08-08T14:52:57.235Z,21.85
2022-08-08T14:55:43.758Z,22.27
2022-08-08T14:58:31.263Z,22.25
2022-08-08T15:01:23.829Z,21.76
2022-08-08T15:04:14.037Z,22.09
2022-08-08T15:07:00.006Z,21.57
2022-08-08T15:09:51.390Z,21.27
2022-08-08T15:12:39.476Z,20.83
2022-08-08T15:16:02.885Z,21.18
2022-08-08T15:18:35.001Z,20.97
2022-08-08T15:21:21.370Z,20.90
2022-08-08T15:24:12.589Z,20.88
2022-08-08T15:27:12.106Z,20.95
2022-08-08T15:30:08.107Z,20.96
2022-08-08T15:32:58.278Z,20.66
2022-08-08T15:35:44.293Z,21.05
2022-08-08T15:38:30.253Z,20.80
2022-08-08T15:41:16.159Z,21.36
2022-08-08T15:44:02.097Z,20.90
2022-08-08T15:46:50.870Z,20.87
2022-08-08T15:49:40.822Z,20.96
2022-08-08T15:52:26.954Z,20.64
2022-08-08T15:55:13.328Z,20.73
2022-08-08T15:57:59.904Z,20.75
2022-08-08T16:00:47.259Z,20.25
2022-08-08T16:03:36.656Z,20.46
2022-08-08T16:06:28.878Z,20.42
2022-08-08T16:13:08.805Z,20.46
2022-08-08T16:13:15.267Z,20.87
2022-08-08T16:15:32.544Z,20.58
2022-08-08T16:18:19.784Z,20.97
2022-08-08T16:21:20.644Z,20.96
2022-08-08T16:24:12.693Z,21.18
2022-08-08T16:26:58.956Z,20.97
2022-08-08T16:30:13.562Z,21.14
2022-08-08T16:32:51.922Z,21.33
2022-08-08T16:35:37.917Z,21.44
2022-08-08T16:38:26.399Z,21.35
2022-08-08T16:41:21.152Z,21.92
2022-08-08T16:44:12.561Z,21.80
2022-08-08T16:46:59.249Z,22.14
2022-08-08T16:49:47.666Z,22.33
2022-08-08T16:55:00.526Z,22.25
2022-08-08T16:55:52.578Z,22.25
2022-08-08T16:58:42.687Z,22.59
2022-08-08T17:01:31.030Z,22.29
2022-08-08T17:04:21.785Z,22.97
2022-08-08T17:07:08.527Z,22.91
2022-08-08T17:09:56.122Z,22.76
2022-08-08T17:12:47.070Z,23.37
2022-08-08T17:15:47.597Z,23.58
2022-08-08T17:18:41.526Z,23.74
2022-08-08T17:21:36.713Z,24.11
2022-08-08T17:24:30.243Z,24.03
2022-08-08T17:27:17.633Z,24.00
2022-08-08T17:30:08.258Z,24.14
2022-08-08T17:34:36.523Z,24.07
2022-08-08T17:36:10.106Z,24.58
2022-08-08T17:39:05.427Z,24.49
2022-08-08T17:42:05.412Z,24.47
2022-08-08T17:44:52.871Z,24.88
2022-08-08T17:47:40.788Z,25.11
2022-08-08T17:50:27.426Z,25.02
2022-08-08T17:53:13.652Z,25.38
2022-08-08T17:56:06.583Z,25.48
2022-08-08T17:58:54.178Z,25.56
2022-08-08T18:01:58.209Z,25.75
2022-08-08T18:04:50.823Z,25.89
2022-08-08T18:08:02.690Z,25.89
2022-08-08T18:10:43.513Z,26.04
2022-08-08T18:13:29.952Z,26.18
2022-08-08T18:16:23.602Z,26.25
2022-08-08T18:19:13.377Z,26.33
2022-08-08T18:22:02.478Z,26.56
2022-08-08T18:24:51.373Z,26.51
2022-08-08T18:27:38.325Z,26.89
2022-08-08T18:30:29.009Z,26.77
2022-08-08T18:33:36.420Z,27.24
2022-08-08T18:36:23.197Z,27.01
2022-08-08T18:39:11.154Z,27.29
2022-08-08T18:42:03.784Z,27.57
2022-08-08T18:44:55.150Z,27.94
2022-08-08T18:47:42.146Z,27.68
2022-08-08T18:50:28.368Z,27.65
2022-08-08T18:53:14.263Z,28.13
2022-08-08T18:56:02.409Z,27.93
2022-08-08T18:58:49.382Z,28.19
2022-08-08T19:02:28.294Z,28.27
2022-08-08T19:04:43.427Z,28.52
2022-08-08T19:07:33.540Z,28.46
2022-08-08T19:10:25.389Z,28.75
2022-08-08T19:13:20.870Z,28.44
2022-08-08T19:16:18.393Z,28.54
2022-08-08T19:19:09.944Z,28.64
2022-08-08T19:22:00.193Z,28.68
2022-08-08T19:26:00.122Z,28.73
2022-08-08T19:27:57.461Z,28.92
2022-08-08T19:30:51.454Z,28.93
2022-08-08T19:34:04.691Z,29.01
2022-08-08T19:36:59.102Z,28.89
2022-08-08T19:39:46.189Z,29.02
2022-08-08T19:42:37.178Z,29.13
2022-08-08T19:45:59.671Z,29.15
2022-08-08T19:48:31.152Z,29.44
2022-08-08T19:51:25.155Z,29.18
2022-08-08T19:54:20.748Z,29.45
2022-08-08T19:57:08.966Z,29.67
2022-08-08T19:59:55.915Z,29.43
2022-08-08T20:02:41.694Z,29.64
2022-08-08T20:06:14.294Z,29.62
2022-08-08T20:08:35.245Z,29.47
2022-08-08T20:11:22.035Z,29.81
2022-08-08T20:14:13.310Z,29.78
2022-08-08T20:17:14.709Z,30.05
2022-08-08T20:20:19.605Z,30.04
2022-08-08T20:23:12.260Z,30.14
2022-08-08T20:26:02.281Z,30.15
2022-08-08T20:28:51.023Z,30.43
2022-08-08T20:32:07.336Z,30.45
2022-08-08T20:34:47.972Z,30.78
2022-08-08T20:37:53.166Z,30.56
2022-08-08T20:40:41.874Z,30.81
2022-08-08T20:43:43.109Z,31.02
2022-08-08T20:46:30.454Z,30.86
2022-08-08T20:49:16.429Z,31.28
2022-08-08T20:52:03.045Z,31.18
2022-08-08T20:54:49.760Z,31.42
2022-08-08T20:57:43.759Z,31.59
2022-08-08T21:00:36.980Z,31.56
2022-08-08T21:03:29.854Z,31.76
2022-08-08T21:06:15.958Z,31.82
2022-08-08T21:09:02.091Z,32.00
2022-08-08T21:11:51.741Z,31.88
2022-08-08T21:14:38.319Z,31.58
2022-08-08T21:17:25.765Z,31.67
2022-08-08T21:20:13.741Z,31.73
2022-08-08T21:22:59.807Z,32.08
2022-08-08T21:25:49.148Z,32.01
2022-08-08T21:28:36.408Z,32.16
2022-08-08T21:31:23.820Z,32.43
2022-08-08T21:34:30.112Z,32.66
2022-08-08T21:37:19.080Z,32.42
2022-08-08T21:40:07.849Z,32.33
2022-08-08T21:42:54.253Z,32.44
2022-08-08T21:48:02.124Z,32.81
2022-08-08T21:48:51.631Z,32.81
2022-08-08T21:54:32.272Z,32.80
2022-08-08T21:55:02.356Z,33.00
2022-08-08T21:58:04.222Z,32.64
2022-08-08T22:00:54.913Z,33.00
2022-08-08T22:03:41.708Z,33.13
2022-08-08T22:06:38.047Z,33.33
2022-08-08T22:09:27.094Z,33.15
2022-08-08T22:12:27.277Z,33.24
2022-08-08T22:15:13.257Z,33.33
2022-08-08T22:18:01.453Z,33.44
2022-08-08T22:20:48.165Z,33.69
2022-08-08T22:23:35.969Z,33.78
2022-08-08T22:26:29.972Z,33.51
2022-08-08T22:30:02.273Z,33.86
2022-08-08T22:32:22.889Z,33.42
2022-08-08T22:35:08.997Z,33.57
2022-08-08T22:37:58.261Z,33.41
2022-08-08T22:40:48.224Z,33.50
2022-08-08T22:44:02.785Z,33.67
2022-08-08T22:46:41.433Z,33.61
2022-08-08T22:49:31.032Z,34.14
2022-08-08T22:52:25.960Z,33.65
2022-08-08T22:55:12.140Z,34.06
2022-08-08T22:57:57.952Z,34.18
2022-08-08T23:00:54.424Z,34.30
2022-08-08T23:03:53.498Z,34.28
2022-08-08T23:06:40.821Z,33.97
2022-08-08T23:09:30.743Z,34.38
2022-08-08T23:12:40.004Z,34.00
2022-08-08T23:16:39.188Z,34.40
2022-08-08T23:18:29.101Z,34.22
2022-08-08T23:21:15.669Z,34.44
2022-08-08T23:24:01.727Z,34.32
2022-08-08T23:26:55.613Z,34.34
2022-08-08T23:29:42.949Z,34.42
2022-08-08T23:32:41.667Z,34.57
2022-08-08T23:35:34.457Z,34.44
2022-08-08T23:38:41.594Z,34.57
2022-08-08T23:41:30.934Z,34.58
2022-08-08T23:44:32.455Z,34.84
2022-08-08T23:49:00.670Z,34.97
2022-08-08T23:50:30.685Z,34.96
2022-08-08T23:53:17.008Z,34.75
2022-08-08T23:56:31.930Z,34.64
2022-08-08T23:59:19.837Z,34.83
